createdAt,value
2022-10-14T03:35:07.449Z,17.91
2022-10-14T03:37:10.473Z,18.19
2022-10-14T03:39:13.879Z,18.42
2022-10-14T03:41:16.784Z,18.58
2022-10-14T03:43:19.619Z,18.73
2022-10-14T03:45:25.780Z,18.85
2022-10-14T03:47:28.779Z,18.90
2022-10-14T03:49:31.503Z,19.00
2022-10-14T03:51:35.716Z,19.06
2022-10-14T03:53:38.525Z,19.12
2022-10-14T03:55:41.647Z,19.16
2022-10-14T03:57:44.895Z,19.19
2022-10-14T03:59:47.655Z,19.20
2022-10-14T04:01:50.418Z,19.25
2022-10-14T04:03:53.173Z,19.25
2022-10-14T04:05:56.068Z,19.28
2022-10-14T04:08:00.843Z,19.27
2022-10-14T04:10:04.048Z,19.28
2022-10-14T04:12:21.558Z,19.29
2022-10-14T04:14:24.943Z,19.30
2022-10-14T04:16:28.102Z,19.30
2022-10-14T04:18:30.848Z,19.31
2022-10-14T04:20:34.296Z,19.32
2022-10-14T04:22:37.530Z,19.33
2022-10-14T04:24:41.640Z,19.35
2022-10-14T04:26:44.583Z,19.34
2022-10-14T04:28:48.942Z,19.34
2022-10-14T04:30:54.205Z,19.34
2022-10-14T04:32:57.085Z,19.36
2022-10-14T04:34:59.906Z,19.34
2022-10-14T04:37:02.878Z,19.34
2022-10-14T04:39:05.866Z,19.34
2022-10-14T04:41:10.075Z,19.35
2022-10-14T04:43:12.823Z,19.34
2022-10-14T04:45:15.723Z,19.35
2022-10-14T04:47:18.511Z,19.33
2022-10-14T04:49:21.392Z,19.31
2022-10-14T04:51:24.474Z,19.31
2022-10-14T04:53:27.252Z,19.30
2022-10-14T04:55:30.045Z,19.28
2022-10-14T04:57:34.140Z,19.25
2022-10-14T04:59:36.923Z,19.24
2022-10-14T05:01:39.947Z,19.23
2022-10-14T05:03:42.753Z,19.19
2022-10-14T05:05:46.116Z,19.18
2022-10-14T05:07:48.953Z,19.18
2022-10-14T05:09:56.207Z,19.18
2022-10-14T05:11:59.608Z,19.12
2022-10-14T05:14:03.811Z,19.06
2022-10-14T05:16:07.452Z,19.06
2022-10-14T05:18:12.133Z,19.04
2022-10-14T05:20:14.944Z,19.04
2022-10-14T05:22:17.744Z,19.05
2022-10-14T05:24:20.604Z,19.09
2022-10-14T05:26:23.444Z,19.10
2022-10-14T05:28:26.229Z,19.13
2022-10-14T05:30:34.740Z,19.12
2022-10-14T05:32:38.296Z,19.14
2022-10-14T05:34:41.326Z,19.13
2022-10-14T05:36:44.652Z,19.15
2022-10-14T05:38:47.533Z,19.16
2022-10-14T05:40:54.016Z,19.15
2022-10-14T05:42:56.799Z,19.17
2022-10-14T05:44:59.556Z,19.18
2022-10-14T05:47:03.790Z,19.19
2022-10-14T05:49:08.102Z,19.20
2022-10-14T05:51:11.052Z,19.20
2022-10-14T05:53:14.047Z,19.21
2022-10-14T05:55:17.137Z,19.21
2022-10-14T05:57:20.047Z,19.23
2022-10-14T05:59:22.883Z,19.25
2022-10-14T06:01:25.696Z,19.26
2022-10-14T06:03:30.026Z,19.27
2022-10-14T06:05:37.773Z,19.29
2022-10-14T06:07:40.490Z,19.30
2022-10-14T06:09:44.591Z,19.28
2022-10-14T06:11:47.411Z,19.28
2022-10-14T06:13:50.327Z,19.28
2022-10-14T06:15:53.215Z,19.28
2022-10-14T06:17:56.126Z,19.29
2022-10-14T06:20:00.363Z,19.29
2022-10-14T06:22:03.969Z,19.32
2022-10-14T06:24:07.559Z,19.31
2022-10-14T06:26:11.488Z,19.31
2022-10-14T06:28:14.568Z,19.31
2022-10-14T06:30:18.624Z,19.32
2022-10-14T06:32:21.449Z,19.32
2022-10-14T06:34:25.004Z,19.32
2022-10-14T06:36:29.144Z,19.34
2022-10-14T06:38:31.986Z,19.35
2022-10-14T06:40:35.122Z,19.35
2022-10-14T06:42:38.737Z,19.34
2022-10-14T06:44:41.466Z,19.34
2022-10-14T06:46:44.703Z,19.35
2022-10-14T06:48:50.355Z,19.36
2022-10-14T06:50:53.612Z,19.37
2022-10-14T06:53:00.176Z,19.37
2022-10-14T06:55:03.005Z,19.38
2022-10-14T06:57:06.218Z,19.40
2022-10-14T06:59:08.954Z,19.41
2022-10-14T07:01:12.217Z,19.42
2022-10-14T07:03:15.564Z,19.42
2022-10-14T07:05:18.838Z,19.44
2022-10-14T07:07:21.729Z,19.46
2022-10-14T07:09:27.490Z,19.46
2022-10-14T07:11:30.291Z,19.45
2022-10-14T07:13:34.645Z,19.45
2022-10-14T07:15:39.063Z,19.44
2022-10-14T07:17:41.840Z,19.46
2022-10-14T07:19:45.028Z,19.48
2022-10-14T07:21:47.909Z,19.49
2022-10-14T07:23:50.713Z,19.48
2022-10-14T07:25:57.971Z,19.50
2022-10-14T07:28:01.100Z,19.52
2022-10-14T07:30:04.140Z,19.51
2022-10-14T07:32:06.984Z,19.53
2022-10-14T07:34:09.846Z,19.51
2022-10-14T07:36:19.889Z,19.53
2022-10-14T07:38:25.364Z,19.54
2022-10-14T07:40:29.029Z,19.55
2022-10-14T07:42:33.364Z,19.58
2022-10-14T07:44:37.155Z,19.60
2022-10-14T07:46:42.748Z,19.61
2022-10-14T07:48:56.815Z,19.60
2022-10-14T07:51:01.042Z,19.62
2022-10-14T07:53:03.781Z,19.64
2022-10-14T07:55:07.867Z,19.63
2022-10-14T07:57:11.110Z,19.62
2022-10-14T07:59:15.612Z,19.60
2022-10-14T08:01:19.336Z,19.61
2022-10-14T08:03:23.410Z,19.59
2022-10-14T08:05:37.593Z,19.58
2022-10-14T08:07:40.967Z,19.56
2022-10-14T08:09:43.662Z,19.56
2022-10-14T08:11:47.065Z,19.56
2022-10-14T08:13:50.755Z,19.57
2022-10-14T08:15:54.868Z,19.55
2022-10-14T08:17:57.983Z,19.55
2022-10-14T08:20:00.959Z,19.53
2022-10-14T08:22:03.825Z,19.53
2022-10-14T08:24:07.449Z,19.55
2022-10-14T08:26:20.899Z,19.54
2022-10-14T08:28:23.858Z,19.54
2022-10-14T08:30:26.599Z,19.53
2022-10-14T08:32:30.701Z,19.52
2022-10-14T08:34:33.671Z,19.54
2022-10-14T08:36:36.732Z,19.53
2022-10-14T08:38:39.532Z,19.53
2022-10-14T08:40:55.730Z,19.52
2022-10-14T08:43:05.288Z,19.51
2022-10-14T08:45:12.575Z,19.52
2022-10-14T08:47:18.380Z,19.52
2022-10-14T08:49:29.484Z,19.52
2022-10-14T08:51:33.873Z,19.56
2022-10-14T08:53:42.073Z,19.56
2022-10-14T08:55:47.353Z,19.56
2022-10-14T08:57:55.497Z,19.56
2022-10-14T08:59:59.017Z,19.56
2022-10-14T09:02:12.591Z,19.54
2022-10-14T09:04:16.258Z,19.55
2022-10-14T09:06:26.240Z,19.58
2022-10-14T09:08:34.223Z,19.59
2022-10-14T09:10:40.868Z,19.61
2022-10-14T09:12:44.257Z,19.61
2022-10-14T09:14:49.293Z,19.60
2022-10-14T09:16:57.998Z,19.58
2022-10-14T09:19:02.489Z,19.59
2022-10-14T09:21:47.781Z,19.63
2022-10-14T09:23:59.781Z,19.63
2022-10-14T09:26:08.677Z,19.66
2022-10-14T09:28:11.790Z,19.68
2022-10-14T09:30:17.034Z,19.69
2022-10-14T09:32:27.749Z,19.69
2022-10-14T09:34:34.660Z,19.72
2022-10-14T09:36:39.529Z,19.74
2022-10-14T09:38:42.834Z,19.76
2022-10-14T09:40:50.443Z,19.77
2022-10-14T09:42:58.581Z,19.76
2022-10-14T09:47:19.118Z,19.76
2022-10-14T09:49:32.721Z,19.75
2022-10-14T09:51:35.978Z,19.76
2022-10-14T09:53:42.313Z,19.74
2022-10-14T09:55:51.990Z,19.70
2022-10-14T09:58:04.389Z,19.72
2022-10-14T10:00:12.729Z,19.75
2022-10-14T10:02:24.336Z,19.76
2022-10-14T10:04:39.120Z,19.80
2022-10-14T10:06:53.983Z,19.81
2022-10-14T10:09:00.570Z,19.81
2022-10-14T10:11:09.014Z,19.81
2022-10-14T10:13:32.211Z,19.82
2022-10-14T10:15:37.845Z,19.85
2022-10-14T10:17:41.463Z,19.85
2022-10-14T10:19:45.721Z,19.85
2022-10-14T10:21:48.627Z,19.88
2022-10-14T10:23:56.600Z,19.90
2022-10-14T10:26:19.756Z,19.91
2022-10-14T10:28:31.985Z,19.94
2022-10-14T10:30:40.325Z,19.94
2022-10-14T10:32:48.369Z,19.96
2022-10-14T10:35:19.284Z,19.97
2022-10-14T10:37:33.927Z,19.98
2022-10-14T10:39:44.627Z,20.01
2022-10-14T10:41:59.471Z,20.02
2022-10-14T10:44:21.327Z,20.02
2022-10-14T10:46:40.280Z,20.03
2022-10-14T10:48:48.084Z,20.03
2022-10-14T10:50:57.928Z,20.04
2022-10-14T10:53:16.567Z,20.05
2022-10-14T10:55:32.737Z,20.06
2022-10-14T10:57:47.598Z,20.06
2022-10-14T10:59:57.773Z,20.07
2022-10-14T11:02:17.872Z,20.07
2022-10-14T11:04:32.873Z,20.11
2022-10-14T11:07:00.229Z,20.14
2022-10-14T11:09:26.317Z,20.15
2022-10-14T11:12:06.963Z,20.19
2022-10-14T11:14:27.732Z,20.20
2022-10-14T11:16:41.225Z,20.20
2022-10-14T11:18:50.053Z,20.22
2022-10-14T11:21:07.172Z,20.23
2022-10-14T11:23:38.130Z,20.26
2022-10-14T11:25:49.349Z,20.27
2022-10-14T11:28:00.847Z,20.28
2022-10-14T11:30:15.259Z,20.31
2022-10-14T11:32:24.587Z,20.35
2022-10-14T11:34:43.931Z,20.36
2022-10-14T11:36:56.171Z,20.38
2022-10-14T11:39:12.331Z,20.40
2022-10-14T11:41:32.281Z,20.43
2022-10-14T11:43:42.929Z,20.43
2022-10-14T11:45:53.262Z,20.46
2022-10-14T11:48:05.358Z,20.48
2022-10-14T11:50:17.365Z,20.49
2022-10-14T11:52:27.632Z,20.49
2022-10-14T11:54:35.488Z,20.49
2022-10-14T11:56:45.746Z,20.47
2022-10-14T11:58:51.900Z,20.48
2022-10-14T12:01:16.841Z,20.48
2022-10-14T12:03:27.147Z,20.50
2022-10-14T12:05:38.257Z,20.51
2022-10-14T12:07:50.410Z,20.52
2022-10-14T12:09:59.954Z,20.50
2022-10-14T12:12:09.024Z,20.51
2022-10-14T12:14:18.823Z,20.52
2022-10-14T12:16:25.272Z,20.52
2022-10-14T12:18:30.665Z,20.50
2022-10-14T12:20:39.775Z,20.50
2022-10-14T12:22:43.067Z,20.52
2022-10-14T12:24:49.950Z,20.54
2022-10-14T12:26:55.526Z,20.54
2022-10-14T12:29:00.144Z,20.55
2022-10-14T12:31:34.401Z,20.58
2022-10-14T12:34:18.888Z,20.59
2022-10-14T12:38:42.599Z,20.61
2022-10-14T12:40:48.333Z,20.62
2022-10-14T12:43:05.089Z,20.60
2022-10-14T12:45:19.100Z,20.62
2022-10-14T12:47:33.145Z,20.62
2022-10-14T12:49:37.537Z,20.61
2022-10-14T12:51:54.190Z,20.62
2022-10-14T12:54:17.274Z,20.64
2022-10-14T12:56:39.579Z,20.66
2022-10-14T12:58:51.705Z,20.68
2022-10-14T13:00:57.999Z,20.69
2022-10-14T13:03:04.642Z,20.69
2022-10-14T13:05:11.377Z,20.69
2022-10-14T13:07:46.837Z,20.67
2022-10-14T13:09:58.611Z,20.69
2022-10-14T13:12:40.895Z,20.70
2022-10-14T13:14:59.191Z,20.69
2022-10-14T13:17:02.998Z,20.69
2022-10-14T13:19:33.110Z,20.66
2022-10-14T13:21:53.778Z,20.66
2022-10-14T13:23:56.865Z,20.66
2022-10-14T13:26:12.078Z,20.66
2022-10-14T13:28:25.237Z,20.67
2022-10-14T13:30:37.211Z,20.66
2022-10-14T13:32:45.090Z,20.68
2022-10-14T13:34:57.185Z,20.68
2022-10-14T13:37:15.446Z,20.67
2022-10-14T13:39:20.868Z,20.67
2022-10-14T13:41:30.878Z,20.66
2022-10-14T13:43:39.225Z,20.65
2022-10-14T13:45:45.099Z,20.62
2022-10-14T13:47:49.823Z,20.61
2022-10-14T13:49:54.535Z,20.60
2022-10-14T13:52:00.986Z,20.61
2022-10-14T13:54:10.509Z,20.61
2022-10-14T13:56:23.014Z,20.60
2022-10-14T13:58:26.496Z,20.60
2022-10-14T14:00:46.128Z,20.57
2022-10-14T14:02:54.540Z,20.56
2022-10-14T14:05:01.490Z,20.57
2022-10-14T14:07:35.183Z,20.55
2022-10-14T14:09:31.918Z,20.54
2022-10-14T14:11:38.207Z,20.54
2022-10-14T14:13:54.537Z,20.55
2022-10-14T14:16:00.529Z,20.56
2022-10-14T14:18:03.497Z,20.55
2022-10-14T14:20:12.815Z,20.52
2022-10-14T14:22:19.614Z,20.52
2022-10-14T14:24:25.245Z,20.53
2022-10-14T14:26:35.140Z,20.54
2022-10-14T14:28:39.207Z,20.53
2022-10-14T14:30:54.131Z,20.51
2022-10-14T14:33:01.772Z,20.49
2022-10-14T14:35:13.248Z,20.49
2022-10-14T14:37:55.265Z,20.46
2022-10-14T14:40:00.924Z,20.46
2022-10-14T14:42:03.706Z,20.45
2022-10-14T14:44:24.610Z,20.43
2022-10-14T14:46:33.692Z,20.39
2022-10-14T14:48:47.347Z,20.35
2022-10-14T14:50:52.906Z,20.33
2022-10-14T14:53:02.123Z,20.31
2022-10-14T14:55:05.303Z,20.30
2022-10-14T14:57:10.868Z,20.28
2022-10-14T14:59:26.615Z,20.26
2022-10-14T15:01:31.261Z,20.21
2022-10-14T15:04:12.044Z,20.18
2022-10-14T15:06:17.827Z,20.13
2022-10-14T15:08:25.003Z,20.10
2022-10-14T15:10:31.401Z,20.08
2022-10-14T15:12:39.737Z,20.06
2022-10-14T15:14:46.586Z,20.02
2022-10-14T15:16:54.190Z,20.00
2022-10-14T15:19:15.691Z,19.99
2022-10-14T15:21:20.150Z,19.99
2022-10-14T15:23:46.898Z,19.96
2022-10-14T15:25:57.412Z,19.94
2022-10-14T15:28:00.908Z,19.90
2022-10-14T15:30:28.226Z,19.84
2022-10-14T15:32:31.077Z,19.84
2022-10-14T15:34:35.658Z,19.79
2022-10-14T15:36:38.477Z,19.77
2022-10-14T15:38:41.284Z,19.74
2022-10-14T15:40:46.037Z,19.74
2022-10-14T15:42:49.431Z,19.73
2022-10-14T15:44:52.185Z,19.72
2022-10-14T15:47:12.807Z,19.74
2022-10-14T15:49:18.063Z,19.75
2022-10-14T15:51:23.680Z,19.75
2022-10-14T15:53:26.541Z,19.76
2022-10-14T15:55:35.289Z,19.78
2022-10-14T15:57:39.947Z,19.80
2022-10-14T15:59:42.652Z,19.82
2022-10-14T16:01:46.234Z,19.84
2022-10-14T16:03:49.447Z,19.86
2022-10-14T16:05:52.317Z,19.89
2022-10-14T16:07:55.236Z,19.87
2022-10-14T16:09:57.971Z,19.86
2022-10-14T16:12:00.933Z,19.87
2022-10-14T16:14:06.457Z,19.86
2022-10-14T16:16:12.815Z,19.85
2022-10-14T16:18:16.024Z,19.82
2022-10-14T16:20:18.771Z,19.79
2022-10-14T16:22:21.767Z,19.78
2022-10-14T16:24:25.865Z,19.78
2022-10-14T16:26:29.320Z,19.77
2022-10-14T16:28:32.275Z,19.76
2022-10-14T16:30:37.475Z,19.75
2022-10-14T16:32:40.359Z,19.74
2022-10-14T16:34:43.129Z,19.71
2022-10-14T16:36:46.147Z,19.70
2022-10-14T16:38:48.909Z,19.70
2022-10-14T16:40:55.669Z,19.72
2022-10-14T16:42:58.547Z,19.73
2022-10-14T16:45:01.330Z,19.73
2022-10-14T16:47:18.736Z,19.72
2022-10-14T16:49:21.970Z,19.74
2022-10-14T16:51:24.770Z,19.72
2022-10-14T16:53:41.840Z,19.72
2022-10-14T16:55:44.502Z,19.71
2022-10-14T16:57:47.593Z,19.69
2022-10-14T16:59:50.431Z,19.69
2022-10-14T17:01:53.637Z,19.70
2022-10-14T17:03:58.628Z,19.71
2022-10-14T17:06:01.576Z,19.69
2022-10-14T17:08:04.275Z,19.71
2022-10-14T17:10:08.467Z,19.68
2022-10-14T17:12:13.727Z,19.66
2022-10-14T17:14:24.056Z,19.68
2022-10-14T17:16:28.426Z,19.68
2022-10-14T17:18:34.731Z,19.68
2022-10-14T17:20:39.240Z,19.68
2022-10-14T17:22:44.709Z,19.66
2022-10-14T17:24:47.664Z,19.65
2022-10-14T17:26:50.451Z,19.66
2022-10-14T17:28:53.684Z,19.66
2022-10-14T17:30:56.752Z,19.66
2022-10-14T17:32:59.499Z,19.66
2022-10-14T17:35:03.498Z,19.66
2022-10-14T17:39:22.820Z,19.64
2022-10-14T17:41:31.705Z,19.63
2022-10-14T17:43:34.709Z,19.63
2022-10-14T17:45:38.176Z,19.62
2022-10-14T17:47:40.887Z,19.62
2022-10-14T17:49:43.734Z,19.64
2022-10-14T17:51:46.414Z,19.64
2022-10-14T17:53:50.501Z,19.61
2022-10-14T17:55:55.445Z,19.59
2022-10-14T17:58:00.563Z,19.58
2022-10-14T18:00:03.467Z,19.58
2022-10-14T18:02:09.527Z,19.57
2022-10-14T18:04:12.422Z,19.58
2022-10-14T18:06:18.061Z,19.59
2022-10-14T18:08:20.732Z,19.59
2022-10-14T18:10:24.855Z,19.61
2022-10-14T18:12:27.683Z,19.61
2022-10-14T18:14:30.867Z,19.59
2022-10-14T18:16:35.910Z,19.60
2022-10-14T18:18:39.395Z,19.60
2022-10-14T18:20:42.082Z,19.58
2022-10-14T18:22:44.838Z,19.56
2022-10-14T18:24:47.786Z,19.55
2022-10-14T18:26:52.326Z,19.55
2022-10-14T18:28:57.026Z,19.55
2022-10-14T18:31:05.415Z,19.57
2022-10-14T18:33:08.205Z,19.58
2022-10-14T18:35:11.537Z,19.60
2022-10-14T18:37:14.422Z,19.61
2022-10-14T18:39:17.279Z,19.63
2022-10-14T18:41:20.578Z,19.63
2022-10-14T18:43:24.663Z,19.64
2022-10-14T18:45:27.123Z,19.64
2022-10-14T18:47:29.796Z,19.65
2022-10-14T18:49:36.818Z,19.64
2022-10-14T18:51:44.864Z,19.64
2022-10-14T18:53:49.226Z,19.65
2022-10-14T18:55:52.170Z,19.64
2022-10-14T18:57:54.841Z,19.65
2022-10-14T18:59:59.253Z,19.64
2022-10-14T19:02:01.969Z,19.65
2022-10-14T19:04:07.166Z,19.65
2022-10-14T19:06:11.663Z,19.64
2022-10-14T19:10:22.319Z,19.66
2022-10-14T19:12:43.462Z,19.66
2022-10-14T19:14:46.763Z,19.65
2022-10-14T19:16:51.181Z,19.65
2022-10-14T19:18:54.680Z,19.66
2022-10-14T19:21:04.139Z,19.67
2022-10-14T19:23:06.857Z,19.67
2022-10-14T19:25:10.364Z,19.69
2022-10-14T19:27:13.134Z,19.67
2022-10-14T19:29:16.769Z,19.68
2022-10-14T19:31:21.543Z,19.66
2022-10-14T19:33:25.755Z,19.64
2022-10-14T19:35:29.881Z,19.64
2022-10-14T19:37:32.546Z,19.63
2022-10-14T19:39:35.267Z,19.65
2022-10-14T19:41:42.909Z,19.65
2022-10-14T19:43:47.839Z,19.65
2022-10-14T19:45:50.673Z,19.64
2022-10-14T19:47:53.585Z,19.63
2022-10-14T19:49:57.632Z,19.61
2022-10-14T19:52:00.424Z,19.59
2022-10-14T19:54:03.421Z,19.60
2022-10-14T19:56:08.293Z,19.56
2022-10-14T19:58:11.242Z,19.56
2022-10-14T20:00:15.125Z,19.55
2022-10-14T20:02:17.877Z,19.54
2022-10-14T20:04:25.241Z,19.55
2022-10-14T20:06:35.486Z,19.55
2022-10-14T20:08:38.578Z,19.55
2022-10-14T20:10:41.304Z,19.53
2022-10-14T20:12:43.976Z,19.54
2022-10-14T20:14:46.737Z,19.54
2022-10-14T20:16:53.538Z,19.52
2022-10-14T20:18:58.745Z,19.52
2022-10-14T20:21:02.344Z,19.50
2022-10-14T20:23:06.555Z,19.52
2022-10-14T20:25:10.323Z,19.53
2022-10-14T20:27:14.486Z,19.53
2022-10-14T20:29:17.471Z,19.52
2022-10-14T20:31:22.303Z,19.54
2022-10-14T20:33:25.419Z,19.53
2022-10-14T20:37:35.704Z,19.49
2022-10-14T20:39:39.857Z,19.51
2022-10-14T20:41:43.200Z,19.50
2022-10-14T20:43:47.204Z,19.47
2022-10-14T20:45:49.893Z,19.49
2022-10-14T20:47:53.991Z,19.47
2022-10-14T20:49:56.652Z,19.47
2022-10-14T20:51:59.322Z,19.49
2022-10-14T20:54:05.036Z,19.51
2022-10-14T20:56:12.442Z,19.51
2022-10-14T20:58:15.481Z,19.51
2022-10-14T21:00:18.788Z,19.50
2022-10-14T21:02:22.168Z,19.51
2022-10-14T21:04:24.883Z,19.51
2022-10-14T21:06:27.860Z,19.50
2022-10-14T21:08:30.707Z,19.52
2022-10-14T21:10:33.601Z,19.53
2022-10-14T21:12:37.828Z,19.54
2022-10-14T21:14:40.508Z,19.55
2022-10-14T21:16:43.160Z,19.54
2022-10-14T21:18:47.064Z,19.56
2022-10-14T21:20:50.114Z,19.57
2022-10-14T21:22:54.431Z,19.57
2022-10-14T21:24:57.165Z,19.58
2022-10-14T21:26:59.850Z,19.56
2022-10-14T21:29:04.874Z,19.57
2022-10-14T21:31:10.010Z,19.56
2022-10-14T21:33:12.814Z,19.55
2022-10-14T21:35:15.639Z,19.56
2022-10-14T21:37:20.337Z,19.57
2022-10-14T21:39:23.927Z,19.57
2022-10-14T21:41:26.611Z,19.57
2022-10-14T21:43:30.615Z,19.54
2022-10-14T21:45:35.190Z,19.55
2022-10-14T21:47:37.880Z,19.56
2022-10-14T21:49:40.638Z,19.56
2022-10-14T21:51:43.318Z,19.57
2022-10-14T21:53:47.146Z,19.58
2022-10-14T21:55:53.011Z,19.59
2022-10-14T21:57:55.752Z,19.59
2022-10-14T21:59:58.556Z,19.57
2022-10-14T22:02:02.655Z,19.58
2022-10-14T22:04:06.899Z,19.58
2022-10-14T22:06:11.847Z,19.59
2022-10-14T22:08:14.902Z,19.59
2022-10-14T22:10:35.065Z,19.59
2022-10-14T22:12:37.796Z,19.60
2022-10-14T22:14:40.586Z,19.63
2022-10-14T22:16:43.284Z,19.63
2022-10-14T22:18:50.352Z,19.63
2022-10-14T22:21:04.003Z,19.63
2022-10-14T22:23:06.723Z,19.65
2022-10-14T22:25:10.400Z,19.63
2022-10-14T22:27:13.161Z,19.64
2022-10-14T22:29:18.020Z,19.63
2022-10-14T22:31:22.234Z,19.64
